sensor_id;sensor_type;location;lat;lon;timestamp;P1;durP1;ratioP1;P2;durP2;ratioP2
23260;SDS011;11799;47.740;-3.390;2023-02-12T00:01:40;18.50;;;13.63;;
23260;SDS011;11799;47.740;-3.390;2023-02-12T00:04:05;21.63;;;14.60;;
23260;SDS011;11799;47.740;-3.390;2023-02-12T00:06:31;18.50;;;14.05;;
23260;SDS011;11799;47.740;-3.390;2023-02-12T00:08:56;19.48;;;13.63;;
23260;SDS011;11799;47.740;-3.390;2023-02-12T00:11:23;21.67;;;14.68;;
23260;SDS011;11799;47.740;-3.390;2023-02-12T00:13:51;18.95;;;12.93;;
23260;SDS011;11799;47.740;-3.390;2023-02-12T00:16:19;19.98;;;13.80;;
23260;SDS011;11799;47.740;-3.390;2023-02-12T00:18:46;20.80;;;13.68;;
23260;SDS011;11799;47.740;-3.390;2023-02-12T00:21:12;19.23;;;13.95;;
23260;SDS011;11799;47.740;-3.390;2023-02-12T00:23:38;19.70;;;13.43;;
23260;SDS011;11799;47.740;-3.390;2023-02-12T00:26:12;19.75;;;13.70;;
23260;SDS011;11799;47.740;-3.390;2023-02-12T00:28:45;19.08;;;12.98;;
23260;SDS011;11799;47.740;-3.390;2023-02-12T00:31:12;17.38;;;12.68;;
23260;SDS011;11799;47.740;-3.390;2023-02-12T00:33:43;19.73;;;14.00;;
23260;SDS011;11799;47.740;-3.390;2023-02-12T00:36:09;18.38;;;13.23;;
23260;SDS011;11799;47.740;-3.390;2023-02-12T00:38:40;19.30;;;13.52;;
23260;SDS011;11799;47.740;-3.390;2023-02-12T00:41:08;16.90;;;13.13;;
23260;SDS011;11799;47.740;-3.390;2023-02-12T00:43:34;19.95;;;13.13;;
23260;SDS011;11799;47.740;-3.390;2023-02-12T00:46:00;19.38;;;12.98;;
23260;SDS011;11799;47.740;-3.390;2023-02-12T00:48:25;17.25;;;12.48;;
23260;SDS011;11799;47.740;-3.390;2023-02-12T00:50:51;20.98;;;13.60;;
23260;SDS011;11799;47.740;-3.390;2023-02-12T00:53:17;17.17;;;11.98;;
23260;SDS011;11799;47.740;-3.390;2023-02-12T00:55:43;17.67;;;12.55;;
23260;SDS011;11799;47.740;-3.390;2023-02-12T00:58:09;19.40;;;12.95;;
23260;SDS011;11799;47.740;-3.390;2023-02-12T01:00:36;19.45;;;13.60;;
23260;SDS011;11799;47.740;-3.390;2023-02-12T01:03:01;18.00;;;13.20;;
23260;SDS011;11799;47.740;-3.390;2023-02-12T01:05:28;19.08;;;13.15;;
23260;SDS011;11799;47.740;-3.390;2023-02-12T01:07:55;18.08;;;12.65;;
23260;SDS011;11799;47.740;-3.390;2023-02-12T01:10:21;17.67;;;12.90;;
23260;SDS011;11799;47.740;-3.390;2023-02-12T01:12:47;18.20;;;12.73;;
23260;SDS011;11799;47.740;-3.390;2023-02-12T01:15:13;18.15;;;12.35;;
23260;SDS011;11799;47.740;-3.390;2023-02-12T01:17:40;17.45;;;12.80;;
23260;SDS011;11799;47.740;-3.390;2023-02-12T01:20:06;17.50;;;12.82;;
23260;SDS011;11799;47.740;-3.390;2023-02-12T01:22:34;20.00;;;12.95;;
23260;SDS011;11799;47.740;-3.390;2023-02-12T01:25:01;20.67;;;12.90;;
23260;SDS011;11799;47.740;-3.390;2023-02-12T01:27:27;18.08;;;13.30;;
23260;SDS011;11799;47.740;-3.390;2023-02-12T01:29:54;19.35;;;13.15;;
23260;SDS011;11799;47.740;-3.390;2023-02-12T01:32:20;19.10;;;12.52;;
23260;SDS011;11799;47.740;-3.390;2023-02-12T01:34:45;20.20;;;13.18;;
23260;SDS011;11799;47.740;-3.390;2023-02-12T01:37:11;18.45;;;12.43;;
23260;SDS011;11799;47.740;-3.390;2023-02-12T01:39:38;17.38;;;12.73;;
23260;SDS011;11799;47.740;-3.390;2023-02-12T01:42:03;18.95;;;13.05;;
23260;SDS011;11799;47.740;-3.390;2023-02-12T01:44:31;17.77;;;12.32;;
23260;SDS011;11799;47.740;-3.390;2023-02-12T01:47:03;17.13;;;12.00;;
23260;SDS011;11799;47.740;-3.390;2023-02-12T01:52:13;17.98;;;12.43;;
23260;SDS011;11799;47.740;-3.390;2023-02-12T01:54:45;19.90;;;13.02;;
23260;SDS011;11799;47.740;-3.390;2023-02-12T01:57:12;17.80;;;12.57;;
23260;SDS011;11799;47.740;-3.390;2023-02-12T01:59:40;19.02;;;12.70;;
23260;SDS011;11799;47.740;-3.390;2023-02-12T02:02:09;18.88;;;13.48;;
23260;SDS011;11799;47.740;-3.390;2023-02-12T02:04:39;21.45;;;12.85;;
23260;SDS011;11799;47.740;-3.390;2023-02-12T02:07:09;20.30;;;12.95;;
23260;SDS011;11799;47.740;-3.390;2023-02-12T02:09:36;19.20;;;13.80;;
23260;SDS011;11799;47.740;-3.390;2023-02-12T02:12:03;20.35;;;12.18;;
23260;SDS011;11799;47.740;-3.390;2023-02-12T02:14:48;19.45;;;12.77;;
23260;SDS011;11799;47.740;-3.390;2023-02-12T02:36:21;18.52;;;13.27;;
23260;SDS011;11799;47.740;-3.390;2023-02-12T02:38:58;18.10;;;12.27;;
23260;SDS011;11799;47.740;-3.390;2023-02-12T02:41:34;19.25;;;12.48;;
23260;SDS011;11799;47.740;-3.390;2023-02-12T02:44:12;18.48;;;12.93;;
23260;SDS011;11799;47.740;-3.390;2023-02-12T02:46:43;18.05;;;12.38;;
23260;SDS011;11799;47.740;-3.390;2023-02-12T02:51:49;19.95;;;13.27;;
23260;SDS011;11799;47.740;-3.390;2023-02-12T02:54:36;16.85;;;12.02;;
23260;SDS011;11799;47.740;-3.390;2023-02-12T02:57:16;18.60;;;12.38;;
23260;SDS011;11799;47.740;-3.390;2023-02-12T02:59:48;19.20;;;13.40;;
23260;SDS011;11799;47.740;-3.390;2023-02-12T03:02:20;20.55;;;13.15;;
23260;SDS011;11799;47.740;-3.390;2023-02-12T03:04:51;20.73;;;12.82;;
23260;SDS011;11799;47.740;-3.390;2023-02-12T03:07:26;19.50;;;13.38;;
23260;SDS011;11799;47.740;-3.390;2023-02-12T03:12:32;20.80;;;13.15;;
23260;SDS011;11799;47.740;-3.390;2023-02-12T03:15:11;21.58;;;13.98;;
23260;SDS011;11799;47.740;-3.390;2023-02-12T03:17:44;18.48;;;12.77;;
23260;SDS011;11799;47.740;-3.390;2023-02-12T03:20:19;21.67;;;12.95;;
23260;SDS011;11799;47.740;-3.390;2023-02-12T03:22:54;19.15;;;13.35;;
23260;SDS011;11799;47.740;-3.390;2023-02-12T03:26:00;18.45;;;13.25;;
23260;SDS011;11799;47.740;-3.390;2023-02-12T03:28:25;18.67;;;12.63;;
23260;SDS011;11799;47.740;-3.390;2023-02-12T03:36:46;18.90;;;13.10;;
23260;SDS011;11799;47.740;-3.390;2023-02-12T03:48:24;21.08;;;12.82;;
23260;SDS011;11799;47.740;-3.390;2023-02-12T03:53:24;17.35;;;12.30;;
23260;SDS011;11799;47.740;-3.390;2023-02-12T03:55:52;18.90;;;12.55;;
23260;SDS011;11799;47.740;-3.390;2023-02-12T03:58:22;20.02;;;14.20;;
23260;SDS011;11799;47.740;-3.390;2023-02-12T04:03:17;18.83;;;12.30;;
23260;SDS011;11799;47.740;-3.390;2023-02-12T04:05:43;20.02;;;12.80;;
23260;SDS011;11799;47.740;-3.390;2023-02-12T04:08:09;16.73;;;11.98;;
23260;SDS011;11799;47.740;-3.390;2023-02-12T04:13:19;19.10;;;12.68;;
23260;SDS011;11799;47.740;-3.390;2023-02-12T04:16:35;20.45;;;11.95;;
23260;SDS011;11799;47.740;-3.390;2023-02-12T04:18:59;20.08;;;13.73;;
23260;SDS011;11799;47.740;-3.390;2023-02-12T04:24:36;18.20;;;12.35;;
23260;SDS011;11799;47.740;-3.390;2023-02-12T04:27:33;18.55;;;13.35;;
23260;SDS011;11799;47.740;-3.390;2023-02-12T04:30:09;19.23;;;12.98;;
23260;SDS011;11799;47.740;-3.390;2023-02-12T04:32:49;19.83;;;13.27;;
23260;SDS011;11799;47.740;-3.390;2023-02-12T04:36:00;23.95;;;13.07;;
23260;SDS011;11799;47.740;-3.390;2023-02-12T04:38:31;19.55;;;12.73;;
23260;SDS011;11799;47.740;-3.390;2023-02-12T04:41:00;22.80;;;13.63;;
23260;SDS011;11799;47.740;-3.390;2023-02-12T04:43:30;15.80;;;9.82;;
23260;SDS011;11799;47.740;-3.390;2023-02-12T04:46:02;21.90;;;12.57;;
23260;SDS011;11799;47.740;-3.390;2023-02-12T04:48:29;21.33;;;13.27;;
23260;SDS011;11799;47.740;-3.390;2023-02-12T04:50:54;20.50;;;13.45;;
23260;SDS011;11799;47.740;-3.390;2023-02-12T04:53:20;22.52;;;14.07;;
23260;SDS011;11799;47.740;-3.390;2023-02-12T04:55:45;20.75;;;13.98;;
23260;SDS011;11799;47.740;-3.390;2023-02-12T04:58:11;20.50;;;12.70;;
23260;SDS011;11799;47.740;-3.390;2023-02-12T05:00:37;20.90;;;13.13;;
23260;SDS011;11799;47.740;-3.390;2023-02-12T05:03:03;19.77;;;13.65;;
23260;SDS011;11799;47.740;-3.390;2023-02-12T05:05:29;19.55;;;13.68;;
23260;SDS011;11799;47.740;-3.390;2023-02-12T05:07:55;21.85;;;13.85;;
23260;SDS011;11799;47.740;-3.390;2023-02-12T05:10:20;18.85;;;12.93;;
23260;SDS011;11799;47.740;-3.390;2023-02-12T05:12:46;19.75;;;13.32;;
23260;SDS011;11799;47.740;-3.390;2023-02-12T05:15:11;20.70;;;13.48;;
23260;SDS011;11799;47.740;-3.390;2023-02-12T05:17:37;20.42;;;13.48;;
23260;SDS011;11799;47.740;-3.390;2023-02-12T05:20:03;19.50;;;13.10;;
23260;SDS011;11799;47.740;-3.390;2023-02-12T05:22:30;22.27;;;13.85;;
23260;SDS011;11799;47.740;-3.390;2023-02-12T05:24:55;20.92;;;13.20;;
23260;SDS011;11799;47.740;-3.390;2023-02-12T05:27:21;18.80;;;12.65;;
23260;SDS011;11799;47.740;-3.390;2023-02-12T05:29:46;19.25;;;12.68;;
23260;SDS011;11799;47.740;-3.390;2023-02-12T05:32:12;20.17;;;13.52;;
23260;SDS011;11799;47.740;-3.390;2023-02-12T05:34:37;17.40;;;12.30;;
23260;SDS011;11799;47.740;-3.390;2023-02-12T05:37:03;19.30;;;12.43;;
23260;SDS011;11799;47.740;-3.390;2023-02-12T05:39:29;20.63;;;13.00;;
23260;SDS011;11799;47.740;-3.390;2023-02-12T05:41:54;22.38;;;14.07;;
23260;SDS011;11799;47.740;-3.390;2023-02-12T05:44:20;19.73;;;13.05;;
23260;SDS011;11799;47.740;-3.390;2023-02-12T05:46:45;20.50;;;13.05;;
23260;SDS011;11799;47.740;-3.390;2023-02-12T05:49:11;24.52;;;13.35;;
23260;SDS011;11799;47.740;-3.390;2023-02-12T05:51:37;22.33;;;13.80;;
23260;SDS011;11799;47.740;-3.390;2023-02-12T05:54:03;21.77;;;13.63;;
23260;SDS011;11799;47.740;-3.390;2023-02-12T05:56:32;20.35;;;12.77;;
23260;SDS011;11799;47.740;-3.390;2023-02-12T05:59:00;20.55;;;13.98;;
23260;SDS011;11799;47.740;-3.390;2023-02-12T06:01:31;21.05;;;13.32;;
23260;SDS011;11799;47.740;-3.390;2023-02-12T06:04:02;23.55;;;13.10;;
23260;SDS011;11799;47.740;-3.390;2023-02-12T06:06:30;22.55;;;13.25;;
23260;SDS011;11799;47.740;-3.390;2023-02-12T06:08:57;19.83;;;12.00;;
23260;SDS011;11799;47.740;-3.390;2023-02-12T06:11:23;20.60;;;13.15;;
23260;SDS011;11799;47.740;-3.390;2023-02-12T06:13:49;20.33;;;13.35;;
23260;SDS011;11799;47.740;-3.390;2023-02-12T06:16:25;20.42;;;13.68;;
23260;SDS011;11799;47.740;-3.390;2023-02-12T06:18:52;20.98;;;12.90;;
23260;SDS011;11799;47.740;-3.390;2023-02-12T06:21:19;19.63;;;13.63;;
23260;SDS011;11799;47.740;-3.390;2023-02-12T06:23:46;22.00;;;13.30;;
23260;SDS011;11799;47.740;-3.390;2023-02-12T06:26:13;20.15;;;13.18;;
23260;SDS011;11799;47.740;-3.390;2023-02-12T06:28:39;20.95;;;13.93;;
23260;SDS011;11799;47.740;-3.390;2023-02-12T06:31:05;20.25;;;13.38;;
23260;SDS011;11799;47.740;-3.390;2023-02-12T06:33:42;21.70;;;14.02;;
23260;SDS011;11799;47.740;-3.390;2023-02-12T06:36:07;24.25;;;13.95;;
23260;SDS011;11799;47.740;-3.390;2023-02-12T06:38:33;22.70;;;14.13;;
23260;SDS011;11799;47.740;-3.390;2023-02-12T06:41:02;22.60;;;14.30;;
23260;SDS011;11799;47.740;-3.390;2023-02-12T06:43:28;23.85;;;13.27;;
23260;SDS011;11799;47.740;-3.390;2023-02-12T06:45:54;25.83;;;14.27;;
23260;SDS011;11799;47.740;-3.390;2023-02-12T06:48:19;20.27;;;13.20;;
23260;SDS011;11799;47.740;-3.390;2023-02-12T06:50:45;22.70;;;14.65;;
23260;SDS011;11799;47.740;-3.390;2023-02-12T06:53:11;21.75;;;13.57;;
23260;SDS011;11799;47.740;-3.390;2023-02-12T06:55:36;21.42;;;13.75;;
23260;SDS011;11799;47.740;-3.390;2023-02-12T06:58:02;23.38;;;15.00;;
23260;SDS011;11799;47.740;-3.390;2023-02-12T07:00:28;24.17;;;14.05;;
23260;SDS011;11799;47.740;-3.390;2023-02-12T07:02:54;22.85;;;13.70;;
23260;SDS011;11799;47.740;-3.390;2023-02-12T07:05:20;19.60;;;12.88;;
23260;SDS011;11799;47.740;-3.390;2023-02-12T07:07:46;23.50;;;13.63;;
23260;SDS011;11799;47.740;-3.390;2023-02-12T07:10:12;23.58;;;13.43;;
23260;SDS011;11799;47.740;-3.390;2023-02-12T07:12:38;20.27;;;13.65;;
23260;SDS011;11799;47.740;-3.390;2023-02-12T07:15:03;21.02;;;13.65;;
23260;SDS011;11799;47.740;-3.390;2023-02-12T07:17:29;22.48;;;13.95;;
23260;SDS011;11799;47.740;-3.390;2023-02-12T07:19:55;25.27;;;14.90;;
23260;SDS011;11799;47.740;-3.390;2023-02-12T07:22:21;23.13;;;14.50;;
23260;SDS011;11799;47.740;-3.390;2023-02-12T07:24:47;20.90;;;14.27;;
23260;SDS011;11799;47.740;-3.390;2023-02-12T07:27:13;23.77;;;14.13;;
23260;SDS011;11799;47.740;-3.390;2023-02-12T07:29:39;21.98;;;14.02;;
23260;SDS011;11799;47.740;-3.390;2023-02-12T07:32:05;24.73;;;14.23;;
23260;SDS011;11799;47.740;-3.390;2023-02-12T07:34:31;22.90;;;13.68;;
23260;SDS011;11799;47.740;-3.390;2023-02-12T07:36:56;26.08;;;14.80;;
23260;SDS011;11799;47.740;-3.390;2023-02-12T07:39:22;19.98;;;13.50;;
23260;SDS011;11799;47.740;-3.390;2023-02-12T07:41:48;23.23;;;14.90;;
23260;SDS011;11799;47.740;-3.390;2023-02-12T07:44:13;20.80;;;13.48;;
23260;SDS011;11799;47.740;-3.390;2023-02-12T07:49:06;21.70;;;12.88;;
23260;SDS011;11799;47.740;-3.390;2023-02-12T07:51:35;23.77;;;14.25;;
23260;SDS011;11799;47.740;-3.390;2023-02-12T07:54:01;21.65;;;14.25;;
23260;SDS011;11799;47.740;-3.390;2023-02-12T07:56:28;22.38;;;14.07;;
23260;SDS011;11799;47.740;-3.390;2023-02-12T07:59:04;23.05;;;14.73;;
23260;SDS011;11799;47.740;-3.390;2023-02-12T08:01:32;23.77;;;14.45;;
23260;SDS011;11799;47.740;-3.390;2023-02-12T08:04:00;21.17;;;13.48;;
23260;SDS011;11799;47.740;-3.390;2023-02-12T08:06:40;24.58;;;14.13;;
23260;SDS011;11799;47.740;-3.390;2023-02-12T08:09:08;24.38;;;15.25;;
23260;SDS011;11799;47.740;-3.390;2023-02-12T08:11:36;23.10;;;14.23;;
23260;SDS011;11799;47.740;-3.390;2023-02-12T08:14:03;22.13;;;14.55;;
23260;SDS011;11799;47.740;-3.390;2023-02-12T08:16:29;22.55;;;14.40;;
23260;SDS011;11799;47.740;-3.390;2023-02-12T08:18:56;22.77;;;14.60;;
23260;SDS011;11799;47.740;-3.390;2023-02-12T08:21:23;22.60;;;13.63;;
23260;SDS011;11799;47.740;-3.390;2023-02-12T08:23:52;21.50;;;14.40;;
23260;SDS011;11799;47.740;-3.390;2023-02-12T08:26:20;24.02;;;14.90;;
23260;SDS011;11799;47.740;-3.390;2023-02-12T08:28:49;21.42;;;14.48;;
23260;SDS011;11799;47.740;-3.390;2023-02-12T08:31:24;25.10;;;14.88;;
23260;SDS011;11799;47.740;-3.390;2023-02-12T08:33:51;22.33;;;14.75;;
23260;SDS011;11799;47.740;-3.390;2023-02-12T08:36:19;20.95;;;14.52;;
23260;SDS011;11799;47.740;-3.390;2023-02-12T08:38:47;22.15;;;14.75;;
23260;SDS011;11799;47.740;-3.390;2023-02-12T08:41:15;24.45;;;15.75;;
23260;SDS011;11799;47.740;-3.390;2023-02-12T08:43:42;26.27;;;15.20;;
23260;SDS011;11799;47.740;-3.390;2023-02-12T08:48:38;25.17;;;15.10;;
23260;SDS011;11799;47.740;-3.390;2023-02-12T08:51:05;25.42;;;14.88;;
23260;SDS011;11799;47.740;-3.390;2023-02-12T08:53:39;22.70;;;14.70;;
23260;SDS011;11799;47.740;-3.390;2023-02-12T08:56:06;22.95;;;14.98;;
23260;SDS011;11799;47.740;-3.390;2023-02-12T08:58:33;23.65;;;15.07;;
23260;SDS011;11799;47.740;-3.390;2023-02-12T09:00:59;27.45;;;15.65;;
23260;SDS011;11799;47.740;-3.390;2023-02-12T09:03:25;25.75;;;15.75;;
23260;SDS011;11799;47.740;-3.390;2023-02-12T09:05:51;24.42;;;14.15;;
23260;SDS011;11799;47.740;-3.390;2023-02-12T09:08:17;22.02;;;14.55;;
23260;SDS011;11799;47.740;-3.390;2023-02-12T09:10:43;22.55;;;15.25;;
23260;SDS011;11799;47.740;-3.390;2023-02-12T09:13:09;23.25;;;15.20;;
23260;SDS011;11799;47.740;-3.390;2023-02-12T09:15:40;22.95;;;15.48;;
23260;SDS011;11799;47.740;-3.390;2023-02-12T09:18:08;20.98;;;14.45;;
23260;SDS011;11799;47.740;-3.390;2023-02-12T09:20:36;22.48;;;14.63;;
23260;SDS011;11799;47.740;-3.390;2023-02-12T09:23:05;23.27;;;15.30;;
23260;SDS011;11799;47.740;-3.390;2023-02-12T09:25:31;24.92;;;15.48;;
23260;SDS011;11799;47.740;-3.390;2023-02-12T09:27:59;20.83;;;14.57;;
23260;SDS011;11799;47.740;-3.390;2023-02-12T09:30:25;23.13;;;14.27;;
23260;SDS011;11799;47.740;-3.390;2023-02-12T09:32:51;24.60;;;14.55;;
23260;SDS011;11799;47.740;-3.390;2023-02-12T09:35:17;21.38;;;14.55;;
23260;SDS011;11799;47.740;-3.390;2023-02-12T09:37:43;21.45;;;14.15;;
23260;SDS011;11799;47.740;-3.390;2023-02-12T09:40:15;20.58;;;13.82;;
23260;SDS011;11799;47.740;-3.390;2023-02-12T09:43:03;20.60;;;14.30;;
23260;SDS011;11799;47.740;-3.390;2023-02-12T09:45:37;23.65;;;14.40;;
23260;SDS011;11799;47.740;-3.390;2023-02-12T09:50:59;22.60;;;14.25;;
23260;SDS011;11799;47.740;-3.390;2023-02-12T09:53:31;21.58;;;14.43;;
23260;SDS011;11799;47.740;-3.390;2023-02-12T09:56:00;19.52;;;13.77;;
23260;SDS011;11799;47.740;-3.390;2023-02-12T09:58:33;20.05;;;14.98;;
23260;SDS011;11799;47.740;-3.390;2023-02-12T10:01:16;23.35;;;14.02;;
23260;SDS011;11799;47.740;-3.390;2023-02-12T10:03:43;21.80;;;13.43;;
23260;SDS011;11799;47.740;-3.390;2023-02-12T10:14:25;21.63;;;13.73;;
23260;SDS011;11799;47.740;-3.390;2023-02-12T10:20:20;21.33;;;13.75;;
23260;SDS011;11799;47.740;-3.390;2023-02-12T10:25:48;21.60;;;13.88;;
23260;SDS011;11799;47.740;-3.390;2023-02-12T10:28:18;20.50;;;13.10;;
23260;SDS011;11799;47.740;-3.390;2023-02-12T10:30:53;19.70;;;12.98;;
23260;SDS011;11799;47.740;-3.390;2023-02-12T10:33:26;20.25;;;14.13;;
23260;SDS011;11799;47.740;-3.390;2023-02-12T10:38:52;19.05;;;13.38;;
23260;SDS011;11799;47.740;-3.390;2023-02-12T10:41:23;19.55;;;12.93;;
23260;SDS011;11799;47.740;-3.390;2023-02-12T10:43:51;18.40;;;14.02;;
23260;SDS011;11799;47.740;-3.390;2023-02-12T10:46:17;20.10;;;14.35;;
23260;SDS011;11799;47.740;-3.390;2023-02-12T10:48:43;17.60;;;13.02;;
23260;SDS011;11799;47.740;-3.390;2023-02-12T10:51:19;18.67;;;12.40;;
23260;SDS011;11799;47.740;-3.390;2023-02-12T10:53:49;21.15;;;14.80;;
23260;SDS011;11799;47.740;-3.390;2023-02-12T11:01:28;21.08;;;13.43;;
23260;SDS011;11799;47.740;-3.390;2023-02-12T11:03:56;20.80;;;12.43;;
23260;SDS011;11799;47.740;-3.390;2023-02-12T11:06:24;20.30;;;13.38;;
23260;SDS011;11799;47.740;-3.390;2023-02-12T11:08:52;19.15;;;12.80;;
23260;SDS011;11799;47.740;-3.390;2023-02-12T11:11:37;19.60;;;13.75;;
23260;SDS011;11799;47.740;-3.390;2023-02-12T11:14:04;19.75;;;13.48;;
23260;SDS011;11799;47.740;-3.390;2023-02-12T11:16:32;19.10;;;12.98;;
23260;SDS011;11799;47.740;-3.390;2023-02-12T11:19:02;19.25;;;12.93;;
23260;SDS011;11799;47.740;-3.390;2023-02-12T11:21:30;19.58;;;13.45;;
23260;SDS011;11799;47.740;-3.390;2023-02-12T11:23:56;17.15;;;12.38;;
23260;SDS011;11799;47.740;-3.390;2023-02-12T11:26:27;18.83;;;12.95;;
23260;SDS011;11799;47.740;-3.390;2023-02-12T11:28:58;18.67;;;13.00;;
23260;SDS011;11799;47.740;-3.390;2023-02-12T11:34:34;18.48;;;12.55;;
23260;SDS011;11799;47.740;-3.390;2023-02-12T11:36:46;18.27;;;12.48;;
23260;SDS011;11799;47.740;-3.390;2023-02-12T11:39:20;17.60;;;12.65;;
23260;SDS011;11799;47.740;-3.390;2023-02-12T11:41:50;21.40;;;12.13;;
23260;SDS011;11799;47.740;-3.390;2023-02-12T11:44:34;17.10;;;12.23;;
23260;SDS011;11799;47.740;-3.390;2023-02-12T11:47:02;20.00;;;12.30;;
23260;SDS011;11799;47.740;-3.390;2023-02-12T11:49:35;18.40;;;12.48;;
23260;SDS011;11799;47.740;-3.390;2023-02-12T11:52:04;17.30;;;12.23;;
23260;SDS011;11799;47.740;-3.390;2023-02-12T11:54:37;18.75;;;12.07;;
23260;SDS011;11799;47.740;-3.390;2023-02-12T11:57:06;19.02;;;11.90;;
23260;SDS011;11799;47.740;-3.390;2023-02-12T11:59:55;17.52;;;11.57;;
23260;SDS011;11799;47.740;-3.390;2023-02-12T12:02:23;17.70;;;12.02;;
23260;SDS011;11799;47.740;-3.390;2023-02-12T12:04:55;18.63;;;12.05;;
23260;SDS011;11799;47.740;-3.390;2023-02-12T12:07:35;15.48;;;11.38;;
23260;SDS011;11799;47.740;-3.390;2023-02-12T12:10:12;16.67;;;11.75;;
23260;SDS011;11799;47.740;-3.390;2023-02-12T12:12:48;17.95;;;11.85;;
23260;SDS011;11799;47.740;-3.390;2023-02-12T12:21:21;17.17;;;11.50;;
23260;SDS011;11799;47.740;-3.390;2023-02-12T12:24:02;18.95;;;12.23;;
23260;SDS011;11799;47.740;-3.390;2023-02-12T12:26:35;17.70;;;11.73;;
23260;SDS011;11799;47.740;-3.390;2023-02-12T12:29:12;18.83;;;12.03;;
23260;SDS011;11799;47.740;-3.390;2023-02-12T12:31:46;15.88;;;11.73;;
23260;SDS011;11799;47.740;-3.390;2023-02-12T12:50:40;18.58;;;11.82;;
23260;SDS011;11799;47.740;-3.390;2023-02-12T13:15:48;18.10;;;11.77;;
23260;SDS011;11799;47.740;-3.390;2023-02-12T13:23:53;17.55;;;11.35;;
23260;SDS011;11799;47.740;-3.390;2023-02-12T13:26:25;16.30;;;11.25;;
23260;SDS011;11799;47.740;-3.390;2023-02-12T13:28:57;15.73;;;10.95;;
23260;SDS011;11799;47.740;-3.390;2023-02-12T13:31:30;16.95;;;11.98;;
23260;SDS011;11799;47.740;-3.390;2023-02-12T13:34:04;18.63;;;11.82;;
23260;SDS011;11799;47.740;-3.390;2023-02-12T13:36:36;17.00;;;11.38;;
23260;SDS011;11799;47.740;-3.390;2023-02-12T13:41:36;17.13;;;12.05;;
23260;SDS011;11799;47.740;-3.390;2023-02-12T13:50:04;16.48;;;10.82;;
23260;SDS011;11799;47.740;-3.390;2023-02-12T13:52:42;16.88;;;11.02;;
23260;SDS011;11799;47.740;-3.390;2023-02-12T14:01:10;18.25;;;11.50;;
23260;SDS011;11799;47.740;-3.390;2023-02-12T14:03:38;19.15;;;11.15;;
23260;SDS011;11799;47.740;-3.390;2023-02-12T14:06:15;15.82;;;11.15;;
23260;SDS011;11799;47.740;-3.390;2023-02-12T14:08:49;15.38;;;11.15;;
23260;SDS011;11799;47.740;-3.390;2023-02-12T14:11:17;16.67;;;11.63;;
23260;SDS011;11799;47.740;-3.390;2023-02-12T14:21:58;16.92;;;10.82;;
23260;SDS011;11799;47.740;-3.390;2023-02-12T14:27:06;17.13;;;11.10;;
23260;SDS011;11799;47.740;-3.390;2023-02-12T14:33:20;18.50;;;12.65;;
23260;SDS011;11799;47.740;-3.390;2023-02-12T14:36:11;19.15;;;12.85;;
23260;SDS011;11799;47.740;-3.390;2023-02-12T15:00:40;21.83;;;13.63;;
23260;SDS011;11799;47.740;-3.390;2023-02-12T15:02:41;19.25;;;12.73;;
23260;SDS011;11799;47.740;-3.390;2023-02-12T15:05:14;20.85;;;13.75;;
23260;SDS011;11799;47.740;-3.390;2023-02-12T15:07:49;21.00;;;13.35;;
23260;SDS011;11799;47.740;-3.390;2023-02-12T15:10:40;19.90;;;12.23;;
23260;SDS011;11799;47.740;-3.390;2023-02-12T15:15:54;18.95;;;13.00;;
23260;SDS011;11799;47.740;-3.390;2023-02-12T15:18:34;20.35;;;12.75;;
23260;SDS011;11799;47.740;-3.390;2023-02-12T15:21:11;17.95;;;12.75;;
23260;SDS011;11799;47.740;-3.390;2023-02-12T15:23:39;20.20;;;12.52;;
23260;SDS011;11799;47.740;-3.390;2023-02-12T15:26:11;19.27;;;13.25;;
23260;SDS011;11799;47.740;-3.390;2023-02-12T15:28:42;21.92;;;13.85;;
23260;SDS011;11799;47.740;-3.390;2023-02-12T15:31:13;21.17;;;14.48;;
23260;SDS011;11799;47.740;-3.390;2023-02-12T15:33:44;22.15;;;14.45;;
23260;SDS011;11799;47.740;-3.390;2023-02-12T15:36:15;23.90;;;14.65;;
23260;SDS011;11799;47.740;-3.390;2023-02-12T15:38:43;22.92;;;14.88;;
23260;SDS011;11799;47.740;-3.390;2023-02-12T15:41:26;24.77;;;14.23;;
23260;SDS011;11799;47.740;-3.390;2023-02-12T15:44:02;22.48;;;14.23;;
23260;SDS011;11799;47.740;-3.390;2023-02-12T15:46:56;21.55;;;14.05;;
23260;SDS011;11799;47.740;-3.390;2023-02-12T15:49:31;21.60;;;15.48;;
23260;SDS011;11799;47.740;-3.390;2023-02-12T15:52:00;22.65;;;14.45;;
23260;SDS011;11799;47.740;-3.390;2023-02-12T15:54:29;21.20;;;13.95;;
23260;SDS011;11799;47.740;-3.390;2023-02-12T15:56:55;23.08;;;14.43;;
23260;SDS011;11799;47.740;-3.390;2023-02-12T15:59:22;21.20;;;14.85;;
23260;SDS011;11799;47.740;-3.390;2023-02-12T16:01:56;23.00;;;15.25;;
23260;SDS011;11799;47.740;-3.390;2023-02-12T16:04:28;25.17;;;15.02;;
23260;SDS011;11799;47.740;-3.390;2023-02-12T16:06:56;26.77;;;15.05;;
23260;SDS011;11799;47.740;-3.390;2023-02-12T16:09:32;24.27;;;15.00;;
23260;SDS011;11799;47.740;-3.390;2023-02-12T16:12:03;18.50;;;12.57;;
23260;SDS011;11799;47.740;-3.390;2023-02-12T16:14:41;21.58;;;14.18;;
23260;SDS011;11799;47.740;-3.390;2023-02-12T16:17:21;24.67;;;14.20;;
23260;SDS011;11799;47.740;-3.390;2023-02-12T16:20:04;24.77;;;15.25;;
23260;SDS011;11799;47.740;-3.390;2023-02-12T16:22:37;24.90;;;15.93;;
23260;SDS011;11799;47.740;-3.390;2023-02-12T16:25:17;22.73;;;14.80;;
23260;SDS011;11799;47.740;-3.390;2023-02-12T16:28:14;22.23;;;15.10;;
23260;SDS011;11799;47.740;-3.390;2023-02-12T16:30:46;27.75;;;16.42;;
23260;SDS011;11799;47.740;-3.390;2023-02-12T16:36:05;24.17;;;15.63;;
23260;SDS011;11799;47.740;-3.390;2023-02-12T16:43:39;29.13;;;17.23;;
23260;SDS011;11799;47.740;-3.390;2023-02-12T16:46:08;24.80;;;16.02;;
23260;SDS011;11799;47.740;-3.390;2023-02-12T16:48:40;24.33;;;16.25;;
23260;SDS011;11799;47.740;-3.390;2023-02-12T16:51:23;24.05;;;15.77;;
23260;SDS011;11799;47.740;-3.390;2023-02-12T16:53:49;29.38;;;15.95;;
23260;SDS011;11799;47.740;-3.390;2023-02-12T16:56:19;28.55;;;17.90;;
23260;SDS011;11799;47.740;-3.390;2023-02-12T16:58:47;25.73;;;17.38;;
23260;SDS011;11799;47.740;-3.390;2023-02-12T17:01:16;27.92;;;17.55;;
23260;SDS011;11799;47.740;-3.390;2023-02-12T17:03:44;26.60;;;16.65;;
23260;SDS011;11799;47.740;-3.390;2023-02-12T17:06:12;27.73;;;17.60;;
23260;SDS011;11799;47.740;-3.390;2023-02-12T17:08:39;25.48;;;16.70;;
23260;SDS011;11799;47.740;-3.390;2023-02-12T17:11:04;29.55;;;18.15;;
23260;SDS011;11799;47.740;-3.390;2023-02-12T17:13:30;25.92;;;16.40;;
23260;SDS011;11799;47.740;-3.390;2023-02-12T17:15:56;23.70;;;16.33;;
23260;SDS011;11799;47.740;-3.390;2023-02-12T17:18:25;22.52;;;14.93;;
23260;SDS011;11799;47.740;-3.390;2023-02-12T17:20:53;31.65;;;17.35;;
23260;SDS011;11799;47.740;-3.390;2023-02-12T17:23:21;25.83;;;16.13;;
23260;SDS011;11799;47.740;-3.390;2023-02-12T17:25:47;27.65;;;18.15;;
23260;SDS011;11799;47.740;-3.390;2023-02-12T17:28:13;32.95;;;18.33;;
23260;SDS011;11799;47.740;-3.390;2023-02-12T17:30:39;29.05;;;19.05;;
23260;SDS011;11799;47.740;-3.390;2023-02-12T17:33:04;31.30;;;20.00;;
23260;SDS011;11799;47.740;-3.390;2023-02-12T17:35:30;31.33;;;19.70;;
23260;SDS011;11799;47.740;-3.390;2023-02-12T17:37:55;29.25;;;19.25;;
23260;SDS011;11799;47.740;-3.390;2023-02-12T17:40:21;35.08;;;21.15;;
23260;SDS011;11799;47.740;-3.390;2023-02-12T17:42:47;29.85;;;18.95;;